createdAt,value
2018-08-06T00:00:24.992Z,55.36
2018-08-06T00:01:29.954Z,55.65
2018-08-06T00:02:35.467Z,55.62
2018-08-06T00:03:41.009Z,56.05
2018-08-06T00:04:45.742Z,55.85
2018-08-06T00:05:50.408Z,56.66
2018-08-06T00:06:55.049Z,57.00
2018-08-06T00:08:00.583Z,57.45
2018-08-06T00:09:06.756Z,57.97
2018-08-06T00:10:13.352Z,57.53
2018-08-06T00:11:19.020Z,57.57
2018-08-06T00:12:25.036Z,57.76
2018-08-06T00:13:29.706Z,57.96
2018-08-06T00:14:34.664Z,57.34
2018-08-06T00:15:40.415Z,57.43
2018-08-06T00:16:45.122Z,57.41
2018-08-06T00:17:49.763Z,57.33
2018-08-06T00:18:55.176Z,57.02
2018-08-06T00:20:00.695Z,57.79
2018-08-06T00:21:05.674Z,57.22
2018-08-06T00:22:13.823Z,57.55
2018-08-06T00:23:19.656Z,58.11
2018-08-06T00:24:25.677Z,57.85
2018-08-06T00:25:30.687Z,58.00
2018-08-06T00:26:35.388Z,57.73
2018-08-06T00:27:40.635Z,57.90
2018-08-06T00:28:45.313Z,57.63
2018-08-06T00:29:49.975Z,57.82
2018-08-06T00:30:54.671Z,57.93
2018-08-06T00:31:59.413Z,57.85
2018-08-06T00:33:04.138Z,57.70
2018-08-06T00:34:09.291Z,57.82
2018-08-06T00:35:14.306Z,57.65
2018-08-06T00:36:19.034Z,57.67
2018-08-06T00:37:24.439Z,57.63
2018-08-06T00:38:29.143Z,57.84
2018-08-06T00:39:33.853Z,57.94
2018-08-06T00:40:38.863Z,58.39
2018-08-06T00:41:43.574Z,59.06
2018-08-06T00:42:48.803Z,59.17
2018-08-06T00:43:53.568Z,59.45
2018-08-06T00:44:58.261Z,58.83
2018-08-06T00:46:03.037Z,59.03
2018-08-06T00:47:08.166Z,59.09
2018-08-06T00:48:13.263Z,59.21
2018-08-06T00:49:17.999Z,58.91
2018-08-06T00:50:22.715Z,58.99
2018-08-06T00:51:27.436Z,59.39
2018-08-06T00:52:32.163Z,59.13
2018-08-06T00:53:38.089Z,59.42
2018-08-06T00:54:42.775Z,59.52
2018-08-06T00:55:47.493Z,59.36
2018-08-06T00:56:52.210Z,59.32
2018-08-06T00:57:56.944Z,59.62
2018-08-06T00:59:01.672Z,60.43
2018-08-06T01:00:07.770Z,60.49
2018-08-06T01:01:13.002Z,60.77
2018-08-06T01:02:17.645Z,60.87
2018-08-06T01:03:22.373Z,61.30
2018-08-06T01:04:27.105Z,61.76
2018-08-06T01:05:31.819Z,61.17
2018-08-06T01:06:36.810Z,60.91
2018-08-06T01:07:41.912Z,60.90
2018-08-06T01:08:46.611Z,61.11
2018-08-06T01:09:51.463Z,61.58
2018-08-06T01:10:56.126Z,61.63
2018-08-06T01:12:00.793Z,61.75
2018-08-06T01:13:05.823Z,61.44
2018-08-06T01:14:10.499Z,61.49
2018-08-06T01:15:15.855Z,61.66
2018-08-06T01:16:21.821Z,61.39
2018-08-06T01:17:26.460Z,61.16
2018-08-06T01:18:31.140Z,60.74
2018-08-06T01:19:36.096Z,60.73
2018-08-06T01:20:40.736Z,60.52
2018-08-06T01:21:45.413Z,61.08
2018-08-06T01:22:50.096Z,61.15
2018-08-06T01:23:54.634Z,61.25
2018-08-06T01:24:59.192Z,61.71
2018-08-06T01:26:04.062Z,61.21
2018-08-06T01:27:08.615Z,61.56
2018-08-06T01:28:13.181Z,61.50
2018-08-06T01:29:17.725Z,61.44
2018-08-06T01:30:22.273Z,61.49
2018-08-06T01:31:26.817Z,61.03
2018-08-06T01:32:31.671Z,61.07
2018-08-06T01:33:36.215Z,61.47
2018-08-06T01:34:47.022Z,61.11
2018-08-06T01:35:51.591Z,61.31
2018-08-06T01:36:56.935Z,61.26
2018-08-06T01:38:01.517Z,60.69
2018-08-06T01:39:08.741Z,60.77
2018-08-06T01:40:14.440Z,61.14
2018-08-06T01:41:19.061Z,60.79
2018-08-06T01:42:23.612Z,60.89
2018-08-06T01:43:28.165Z,60.86
2018-08-06T01:44:32.722Z,60.68
2018-08-06T01:45:37.609Z,61.12
2018-08-06T01:46:42.190Z,60.90
2018-08-06T01:47:46.922Z,60.95
2018-08-06T01:48:51.444Z,60.84
2018-08-06T01:49:55.992Z,60.81
2018-08-06T01:51:00.505Z,61.14
2018-08-06T01:52:05.387Z,60.86
2018-08-06T01:53:10.060Z,61.27
2018-08-06T01:54:14.706Z,61.61
2018-08-06T01:55:19.420Z,62.13
2018-08-06T01:56:24.067Z,62.25
2018-08-06T01:57:28.765Z,62.26
2018-08-06T01:58:33.591Z,62.25
2018-08-06T01:59:38.175Z,62.29
2018-08-06T02:00:42.757Z,62.08
2018-08-06T02:01:47.320Z,61.70
2018-08-06T02:02:52.019Z,61.66
2018-08-06T02:03:59.764Z,61.52
2018-08-06T02:05:04.841Z,61.70
2018-08-06T02:06:09.532Z,61.40
2018-08-06T02:07:14.222Z,61.22
2018-08-06T02:08:19.842Z,61.81
2018-08-06T02:09:24.600Z,61.74
2018-08-06T02:10:29.310Z,61.56
2018-08-06T02:11:34.324Z,61.67
2018-08-06T02:12:39.099Z,62.47
2018-08-06T02:13:43.845Z,62.00
2018-08-06T02:14:48.567Z,62.07
2018-08-06T02:15:53.162Z,61.70
2018-08-06T02:16:57.771Z,62.05
2018-08-06T02:18:02.653Z,61.99
2018-08-06T02:19:08.212Z,61.55
2018-08-06T02:20:13.501Z,61.39
2018-08-06T02:21:18.087Z,61.34
2018-08-06T02:22:22.652Z,61.91
2018-08-06T02:23:27.257Z,61.75
2018-08-06T02:24:32.119Z,61.78
2018-08-06T02:25:38.015Z,62.02
2018-08-06T02:26:42.618Z,61.85
2018-08-06T02:27:47.211Z,62.77
2018-08-06T02:28:51.864Z,62.46
2018-08-06T02:29:56.394Z,63.06
2018-08-06T02:31:01.006Z,63.12
2018-08-06T02:32:05.577Z,62.91
2018-08-06T02:33:10.133Z,63.10
2018-08-06T02:34:14.684Z,63.21
2018-08-06T02:35:19.225Z,62.56
2018-08-06T02:36:31.616Z,62.62
2018-08-06T02:37:36.261Z,62.33
2018-08-06T02:38:40.903Z,62.59
2018-08-06T02:39:45.583Z,62.24
2018-08-06T02:40:50.280Z,62.33
2018-08-06T02:41:54.943Z,62.59
2018-08-06T02:42:59.936Z,62.42
2018-08-06T02:44:04.642Z,62.67
2018-08-06T02:45:10.105Z,63.26
2018-08-06T02:46:14.781Z,63.40
2018-08-06T02:47:19.463Z,63.81
2018-08-06T02:48:24.185Z,63.60
2018-08-06T02:49:29.137Z,63.78
2018-08-06T02:50:33.841Z,63.58
2018-08-06T02:51:38.533Z,63.79
2018-08-06T02:52:44.088Z,63.33
2018-08-06T02:53:48.761Z,63.90
2018-08-06T02:54:53.641Z,63.91
2018-08-06T02:55:58.584Z,64.24
2018-08-06T02:57:04.297Z,64.81
2018-08-06T02:58:09.020Z,65.12
2018-08-06T02:59:13.670Z,65.36
2018-08-06T03:00:19.036Z,64.67
2018-08-06T03:01:23.729Z,64.77
2018-08-06T03:02:28.753Z,65.36
2018-08-06T03:03:33.401Z,65.13
2018-08-06T03:04:38.058Z,65.30
2018-08-06T03:05:42.998Z,65.34
2018-08-06T03:06:47.669Z,65.79
2018-08-06T03:07:52.939Z,65.70
2018-08-06T03:08:57.894Z,65.62
2018-08-06T03:10:02.622Z,65.65
2018-08-06T03:11:07.299Z,65.33
2018-08-06T03:12:12.038Z,65.46
2018-08-06T03:13:16.691Z,65.30
2018-08-06T03:14:21.341Z,65.84
2018-08-06T03:15:26.305Z,66.20
2018-08-06T03:16:30.953Z,66.42
2018-08-06T03:17:35.638Z,66.84
2018-08-06T03:18:40.387Z,66.83
2018-08-06T03:19:45.114Z,67.23
2018-08-06T03:20:49.814Z,67.26
2018-08-06T03:21:54.764Z,66.95
2018-08-06T03:22:59.530Z,66.43
2018-08-06T03:24:04.229Z,66.16
2018-08-06T03:25:10.564Z,66.39
2018-08-06T03:26:15.252Z,66.23
2018-08-06T03:27:19.890Z,65.90
2018-08-06T03:28:25.106Z,65.91
2018-08-06T03:29:29.867Z,65.97
2018-08-06T03:30:34.545Z,66.01
2018-08-06T03:31:39.218Z,65.75
2018-08-06T03:32:44.860Z,65.48
2018-08-06T03:33:49.530Z,65.61
2018-08-06T03:34:55.512Z,65.40
2018-08-06T03:50:29.710Z,65.48
2018-08-06T03:51:34.262Z,65.36
2018-08-06T03:52:38.870Z,65.47
2018-08-06T03:53:43.444Z,65.17
2018-08-06T03:54:47.966Z,65.54
2018-08-06T03:55:53.446Z,65.33
2018-08-06T03:56:58.369Z,65.89
2018-08-06T03:58:02.957Z,65.51
2018-08-06T03:59:07.521Z,65.77
2018-08-06T04:00:14.443Z,65.99
2018-08-06T04:01:19.166Z,66.00
2018-08-06T04:02:24.325Z,65.73
2018-08-06T04:03:28.991Z,65.87
2018-08-06T04:04:33.648Z,66.25
2018-08-06T04:05:38.351Z,66.33
2018-08-06T04:06:43.001Z,66.41
2018-08-06T04:07:47.707Z,66.28
2018-08-06T04:08:52.678Z,66.24
2018-08-06T04:09:57.333Z,65.91
2018-08-06T04:11:01.993Z,66.05
2018-08-06T04:12:06.688Z,66.20
2018-08-06T04:13:11.422Z,66.60
2018-08-06T04:14:16.146Z,67.01
2018-08-06T04:15:21.085Z,66.74
2018-08-06T04:16:29.869Z,67.00
2018-08-06T04:17:34.545Z,66.48
2018-08-06T04:18:39.220Z,66.81
2018-08-06T04:19:43.928Z,66.96
2018-08-06T04:20:48.602Z,66.99
2018-08-06T04:21:53.556Z,67.08
2018-08-06T04:22:58.208Z,66.73
2018-08-06T04:24:02.972Z,66.54
2018-08-06T04:25:07.988Z,66.58
2018-08-06T04:26:12.650Z,66.73
2018-08-06T04:27:17.625Z,66.54
2018-08-06T04:28:22.308Z,67.31
2018-08-06T04:29:26.990Z,67.44
2018-08-06T04:30:31.827Z,67.85
2018-08-06T04:31:37.130Z,67.91
2018-08-06T04:32:41.999Z,68.07
2018-08-06T04:33:47.028Z,68.04
2018-08-06T04:34:51.712Z,67.81
2018-08-06T04:35:56.383Z,67.86
2018-08-06T04:37:01.059Z,67.75
2018-08-06T04:38:05.812Z,67.88
2018-08-06T04:39:10.759Z,67.24
2018-08-06T04:40:15.477Z,67.06
2018-08-06T04:41:20.274Z,67.07
2018-08-06T04:42:24.998Z,66.65
2018-08-06T04:43:29.699Z,66.77
2018-08-06T04:44:34.371Z,66.46
2018-08-06T04:45:39.352Z,66.62
2018-08-06T04:46:44.032Z,66.11
2018-08-06T04:47:48.761Z,66.21
2018-08-06T04:48:53.565Z,66.11
2018-08-06T04:49:58.259Z,66.00
2018-08-06T04:51:03.006Z,65.90
2018-08-06T04:52:08.004Z,65.13
2018-08-06T04:53:12.678Z,65.51
2018-08-06T04:54:17.391Z,65.98
2018-08-06T04:55:23.511Z,66.58
2018-08-06T04:56:28.186Z,66.33
2018-08-06T04:57:34.251Z,65.65
2018-08-06T04:58:39.255Z,65.59
2018-08-06T04:59:45.453Z,65.29
2018-08-06T05:00:54.422Z,65.86
2018-08-06T05:02:00.354Z,65.64
2018-08-06T05:03:08.343Z,65.62
2018-08-06T05:04:14.498Z,65.24
2018-08-06T05:05:22.809Z,65.60
2018-08-06T05:06:27.967Z,65.43
2018-08-06T05:07:33.478Z,64.78
2018-08-06T05:08:39.435Z,65.23
2018-08-06T05:09:45.232Z,64.65
2018-08-06T05:10:50.422Z,64.95
2018-08-06T05:11:59.687Z,64.34
2018-08-06T05:13:06.064Z,64.64
2018-08-06T05:14:10.761Z,64.69
2018-08-06T05:15:15.436Z,64.70
2018-08-06T05:16:20.525Z,64.72
2018-08-06T05:17:25.504Z,64.90
2018-08-06T05:18:30.322Z,64.97
2018-08-06T05:19:35.152Z,64.72
2018-08-06T05:20:39.816Z,64.67
2018-08-06T05:21:44.525Z,65.27
2018-08-06T05:22:49.186Z,65.01
2018-08-06T05:23:55.971Z,64.96
2018-08-06T05:25:00.650Z,64.89
2018-08-06T05:26:05.341Z,64.56
2018-08-06T05:27:10.069Z,64.50
2018-08-06T05:28:14.771Z,64.28
2018-08-06T05:29:20.405Z,64.49
2018-08-06T05:30:25.544Z,64.99
2018-08-06T05:31:30.286Z,65.26
2018-08-06T05:32:35.005Z,64.60
2018-08-06T05:33:39.708Z,64.39
2018-08-06T05:34:45.358Z,64.02
2018-08-06T05:35:50.051Z,64.38
2018-08-06T05:36:55.316Z,64.49
2018-08-06T05:38:00.059Z,64.65
2018-08-06T05:39:05.029Z,64.09
2018-08-06T05:40:09.972Z,63.97
2018-08-06T05:41:14.705Z,64.88
2018-08-06T05:42:19.590Z,65.25
2018-08-06T05:43:24.859Z,65.19
2018-08-06T05:44:30.380Z,65.04
2018-08-06T05:45:35.139Z,64.78
2018-08-06T05:46:41.330Z,64.89
2018-08-06T05:47:46.026Z,64.33
2018-08-06T05:48:50.849Z,64.70
2018-08-06T05:49:55.904Z,64.45
2018-08-06T05:51:01.224Z,64.85
2018-08-06T05:52:08.074Z,65.45
2018-08-06T05:53:12.784Z,65.26
2018-08-06T05:54:17.894Z,65.00
2018-08-06T05:55:23.556Z,64.46
2018-08-06T05:56:28.830Z,64.30
2018-08-06T05:57:33.510Z,64.35
2018-08-06T05:58:38.380Z,64.05
2018-08-06T05:59:43.065Z,64.61
2018-08-06T06:00:47.737Z,64.75
2018-08-06T06:01:53.006Z,64.68
2018-08-06T06:02:58.100Z,64.36
2018-08-06T06:04:02.797Z,64.42
2018-08-06T06:05:07.533Z,64.45
2018-08-06T06:06:12.264Z,64.70
2018-08-06T06:07:17.004Z,64.00
2018-08-06T06:08:22.321Z,64.31
2018-08-06T06:09:27.345Z,64.22
2018-08-06T06:10:32.064Z,63.71
2018-08-06T06:11:36.838Z,63.53
2018-08-06T06:12:41.511Z,63.41
2018-08-06T06:13:46.171Z,63.26
2018-08-06T06:14:50.899Z,62.80
2018-08-06T06:15:55.852Z,62.52
2018-08-06T06:17:03.497Z,62.42
2018-08-06T06:18:08.242Z,61.87
2018-08-06T06:19:14.024Z,61.67
2018-08-06T06:20:18.738Z,61.58
2018-08-06T06:21:24.062Z,61.09
2018-08-06T06:22:30.590Z,60.95
2018-08-06T06:23:36.115Z,60.74
2018-08-06T06:24:40.809Z,60.53
2018-08-06T06:25:45.549Z,60.39
2018-08-06T06:26:57.402Z,60.50
2018-08-06T06:28:04.047Z,60.10
2018-08-06T06:29:08.690Z,60.37
2018-08-06T06:30:14.818Z,60.01
2018-08-06T06:31:21.403Z,59.82
2018-08-06T06:32:26.188Z,59.80
2018-08-06T06:33:31.701Z,59.68
2018-08-06T06:34:36.501Z,59.62
2018-08-06T06:35:41.223Z,59.21
2018-08-06T06:36:45.914Z,59.21
2018-08-06T06:37:51.546Z,58.62
2018-08-06T06:38:57.310Z,57.94
2018-08-06T06:40:02.434Z,57.91
2018-08-06T06:41:08.335Z,57.39
2018-08-06T06:42:13.278Z,57.55
2018-08-06T06:43:18.073Z,57.16
2018-08-06T06:44:22.659Z,56.56
2018-08-06T06:45:27.291Z,56.39
2018-08-06T06:46:32.267Z,56.17
2018-08-06T06:47:37.632Z,56.16
2018-08-06T06:48:42.307Z,55.88
2018-08-06T06:49:47.282Z,55.38
2018-08-06T06:50:51.987Z,55.11
2018-08-06T06:51:56.574Z,54.71
2018-08-06T06:53:02.249Z,54.65
2018-08-06T06:54:07.001Z,54.36
2018-08-06T06:55:14.730Z,53.95
2018-08-06T06:56:19.401Z,52.65
2018-08-06T06:57:25.488Z,53.11
2018-08-06T06:58:30.260Z,52.96
2018-08-06T06:59:34.970Z,53.16
2018-08-06T07:00:40.316Z,52.90
2018-08-06T07:01:44.979Z,52.81
2018-08-06T07:02:49.711Z,52.27
2018-08-06T07:03:54.411Z,52.25
2018-08-06T07:04:59.167Z,52.24
2018-08-06T07:06:04.203Z,51.88
2018-08-06T07:07:08.939Z,51.83
2018-08-06T07:08:14.174Z,51.78
2018-08-06T07:09:19.685Z,51.42
2018-08-06T07:10:24.377Z,51.20
2018-08-06T07:11:29.142Z,51.13
2018-08-06T07:12:35.969Z,50.87
2018-08-06T07:13:40.677Z,50.65
2018-08-06T07:14:45.790Z,50.16
2018-08-06T07:15:51.258Z,50.22
2018-08-06T07:16:56.043Z,49.84
2018-08-06T07:18:00.770Z,49.87
2018-08-06T07:19:06.976Z,49.69
2018-08-06T07:20:12.830Z,49.49
2018-08-06T07:21:18.125Z,49.45
2018-08-06T07:22:22.826Z,49.60
2018-08-06T07:23:27.533Z,49.45
2018-08-06T07:24:32.250Z,49.55
2018-08-06T07:25:38.350Z,49.28
2018-08-06T07:26:43.044Z,49.04
2018-08-06T07:27:48.669Z,49.47
2018-08-06T07:28:56.201Z,49.21
2018-08-06T07:30:00.782Z,49.56
2018-08-06T07:31:05.599Z,48.94
2018-08-06T07:32:11.284Z,48.63
2018-08-06T07:33:15.945Z,48.23
2018-08-06T07:34:23.444Z,48.23
2018-08-06T07:35:28.010Z,48.29
2018-08-06T07:36:32.792Z,48.93
2018-08-06T07:37:38.412Z,48.56
2018-08-06T07:38:43.270Z,47.86
2018-08-06T07:39:49.495Z,48.39
2018-08-06T07:40:54.044Z,48.56
2018-08-06T07:41:58.578Z,48.10
2018-08-06T07:43:04.779Z,48.23
2018-08-06T07:44:11.497Z,47.97
2018-08-06T07:45:20.181Z,47.67
2018-08-06T07:46:26.783Z,47.99
2018-08-06T07:47:32.464Z,48.08
2018-08-06T07:48:39.786Z,47.69
2018-08-06T07:49:45.384Z,47.81
2018-08-06T07:50:51.670Z,47.84
2018-08-06T07:51:57.019Z,47.68
2018-08-06T07:53:04.090Z,47.96
2018-08-06T07:54:09.838Z,47.91
2018-08-06T07:55:14.641Z,47.67
2018-08-06T07:56:19.427Z,46.72
2018-08-06T07:57:24.169Z,47.30
2018-08-06T07:58:29.913Z,47.31
2018-08-06T07:59:35.345Z,47.30
2018-08-06T08:00:40.085Z,47.12
2018-08-06T08:01:44.774Z,47.18
2018-08-06T08:02:50.751Z,47.47
2018-08-06T08:03:55.533Z,47.03
2018-08-06T08:05:00.977Z,46.71
2018-08-06T08:06:05.665Z,46.54
2018-08-06T08:07:10.268Z,46.57
2018-08-06T08:08:15.853Z,46.83
2018-08-06T08:09:21.175Z,46.30
2018-08-06T08:10:25.767Z,46.71
2018-08-06T08:11:30.808Z,46.81
2018-08-06T08:12:35.417Z,46.55
2018-08-06T08:13:40.148Z,46.53
2018-08-06T08:14:45.745Z,46.43
2018-08-06T08:15:50.342Z,46.33
2018-08-06T08:16:54.958Z,46.22
2018-08-06T08:18:00.775Z,45.90
2018-08-06T08:19:08.984Z,45.65
2018-08-06T08:20:14.739Z,45.93
2018-08-06T08:21:19.390Z,45.54
2018-08-06T08:22:24.157Z,45.81
2018-08-06T08:23:28.874Z,45.69
2018-08-06T08:24:34.812Z,45.56
2018-08-06T08:25:39.459Z,45.51
2018-08-06T08:26:45.256Z,45.09
2018-08-06T08:27:49.975Z,45.35
2018-08-06T08:28:55.819Z,45.13
2018-08-06T08:30:02.143Z,44.72
2018-08-06T08:31:07.168Z,44.64
2018-08-06T08:32:11.795Z,44.66
2018-08-06T08:33:18.252Z,44.40
2018-08-06T08:34:23.956Z,44.43
2018-08-06T08:35:29.844Z,44.10
2018-08-06T08:36:37.286Z,44.16
2018-08-06T08:37:44.675Z,44.14
2018-08-06T08:38:50.174Z,44.00
2018-08-06T08:39:55.866Z,43.34
2018-08-06T08:41:00.594Z,43.62
2018-08-06T08:42:05.297Z,43.23
2018-08-06T08:43:11.675Z,43.20
2018-08-06T08:44:16.880Z,43.30
2018-08-06T08:45:21.598Z,43.47
2018-08-06T08:46:27.277Z,42.71
2018-08-06T08:47:32.929Z,42.38
2018-08-06T08:48:38.257Z,42.22
2018-08-06T08:49:44.376Z,41.55
2018-08-06T08:50:49.712Z,42.08
2018-08-06T08:51:57.396Z,42.16
2018-08-06T08:53:02.782Z,42.41
2018-08-06T08:54:08.203Z,42.39
2018-08-06T08:55:13.659Z,41.83
2018-08-06T08:56:18.496Z,42.13
2018-08-06T08:57:23.058Z,42.08
2018-08-06T08:58:27.707Z,42.15
2018-08-06T08:59:33.315Z,41.70
2018-08-06T09:00:38.833Z,41.64
2018-08-06T09:01:43.465Z,41.06
2018-08-06T09:02:50.211Z,41.46
2018-08-06T09:03:54.770Z,41.24
2018-08-06T09:05:07.004Z,41.20
2018-08-06T09:06:11.677Z,40.92
2018-08-06T09:07:17.467Z,40.79
2018-08-06T09:08:22.367Z,41.07
2018-08-06T09:09:27.648Z,40.80
2018-08-06T09:10:38.095Z,40.90
2018-08-06T09:11:43.232Z,40.85
2018-08-06T09:12:49.648Z,40.83
2018-08-06T09:13:57.656Z,40.71
2018-08-06T09:15:04.181Z,40.92
2018-08-06T09:16:10.372Z,40.91
2018-08-06T09:17:16.802Z,40.83
2018-08-06T09:18:22.317Z,40.95
2018-08-06T09:19:28.699Z,40.98
2018-08-06T09:20:33.370Z,40.87
2018-08-06T09:21:38.000Z,40.50
2018-08-06T09:22:44.358Z,40.46
2018-08-06T09:23:50.000Z,40.41
2018-08-06T09:24:54.788Z,40.24
2018-08-06T09:25:59.430Z,40.16
2018-08-06T09:27:04.149Z,40.25
2018-08-06T09:28:09.610Z,39.67
2018-08-06T09:29:15.064Z,39.23
2018-08-06T09:30:22.440Z,39.00
2018-08-06T09:31:27.720Z,38.76
2018-08-06T09:32:32.303Z,38.70
2018-08-06T09:33:36.892Z,38.70
2018-08-06T09:34:41.823Z,38.56
2018-08-06T09:35:46.430Z,38.69
2018-08-06T09:36:52.289Z,100.00
2018-08-06T09:37:57.889Z,0.00
2018-08-06T09:39:05.293Z,0.00
2018-08-06T09:40:12.630Z,38.51
2018-08-06T09:41:18.243Z,38.72
2018-08-06T09:42:25.461Z,38.43
2018-08-06T09:43:33.600Z,38.65
2018-08-06T09:44:38.248Z,38.74
2018-08-06T09:45:43.532Z,38.45
2018-08-06T09:46:48.721Z,38.09
2018-08-06T09:47:55.376Z,37.69
2018-08-06T10:06:04.562Z,35.95
2018-08-06T10:07:12.189Z,35.88
2018-08-06T10:08:18.062Z,36.20
2018-08-06T10:09:23.131Z,35.77
2018-08-06T10:10:27.776Z,35.43
2018-08-06T10:11:33.311Z,35.49
2018-08-06T10:12:39.277Z,35.28
2018-08-06T10:13:43.867Z,35.51
2018-08-06T10:14:48.557Z,34.81
2018-08-06T10:15:54.148Z,34.90
2018-08-06T10:16:59.536Z,0.00
2018-08-06T10:18:07.555Z,34.88
2018-08-06T10:19:12.316Z,34.73
2018-08-06T10:20:18.208Z,34.67
2018-08-06T10:21:22.916Z,0.00
2018-08-06T10:22:27.720Z,100.00
2018-08-06T10:23:37.464Z,0.00
2018-08-06T10:24:43.702Z,33.71
2018-08-06T10:25:49.081Z,33.81
2018-08-06T10:26:53.628Z,34.32
2018-08-06T10:27:58.211Z,34.15
2018-08-06T10:29:02.860Z,34.15
2018-08-06T10:30:09.383Z,33.94
2018-08-06T10:31:14.254Z,34.03
2018-08-06T10:32:20.411Z,33.49
2018-08-06T10:33:27.481Z,33.32
2018-08-06T10:34:32.316Z,33.33
2018-08-06T10:35:37.431Z,32.62
2018-08-06T10:36:42.828Z,33.00
2018-08-06T10:37:47.863Z,32.78
2018-08-06T10:38:52.573Z,32.32
2018-08-06T10:39:57.553Z,32.62
2018-08-06T10:41:03.063Z,32.37
2018-08-06T10:42:07.688Z,32.50
2018-08-06T10:43:13.987Z,32.42
2018-08-06T10:44:20.390Z,32.46
2018-08-06T10:45:26.276Z,32.31
2018-08-06T10:46:32.196Z,32.51
2018-08-06T10:47:37.318Z,32.20
2018-08-06T10:48:41.992Z,31.83
2018-08-06T10:49:47.796Z,31.84
2018-08-06T10:50:54.141Z,31.45
2018-08-06T10:51:58.727Z,31.57
2018-08-06T10:53:03.337Z,31.11
2018-08-06T10:54:08.061Z,30.78
2018-08-06T10:55:14.378Z,30.82
2018-08-06T10:56:20.406Z,30.42
2018-08-06T10:57:26.671Z,30.50
2018-08-06T10:58:31.293Z,30.86
2018-08-06T10:59:36.973Z,31.42
2018-08-06T11:00:41.548Z,31.75
2018-08-06T11:01:47.673Z,31.80
2018-08-06T11:02:54.366Z,31.50
2018-08-06T11:04:00.666Z,31.75
2018-08-06T11:05:07.314Z,32.14
2018-08-06T11:06:12.697Z,32.32
2018-08-06T11:07:18.118Z,32.21
2018-08-06T11:08:23.573Z,32.38
2018-08-06T11:09:28.490Z,32.47
2018-08-06T11:10:33.099Z,32.28
2018-08-06T11:11:37.705Z,31.99
2018-08-06T11:12:42.316Z,31.79
2018-08-06T11:13:47.246Z,31.67
2018-08-06T11:14:52.644Z,31.08
2018-08-06T11:15:59.351Z,31.11
2018-08-06T11:17:05.478Z,30.65
2018-08-06T11:18:10.058Z,31.39
2018-08-06T11:19:15.316Z,31.09
2018-08-06T11:20:21.405Z,31.57
2018-08-06T11:21:26.553Z,31.07
2018-08-06T11:22:32.095Z,30.80
2018-08-06T11:23:38.144Z,31.09
2018-08-06T11:24:43.238Z,30.03
2018-08-06T11:25:48.188Z,30.19
2018-08-06T11:26:53.885Z,29.85
2018-08-06T11:27:58.491Z,29.93
2018-08-06T11:29:03.077Z,29.97
2018-08-06T11:30:13.225Z,29.73
2018-08-06T11:31:20.005Z,29.85
2018-08-06T11:32:27.104Z,29.29
2018-08-06T11:33:31.677Z,29.77
2018-08-06T11:34:36.290Z,29.33
2018-08-06T11:35:42.425Z,29.46
2018-08-06T11:36:47.011Z,29.43
2018-08-06T11:37:52.259Z,29.67
2018-08-06T11:38:57.186Z,29.60
2018-08-06T11:40:02.377Z,29.31
2018-08-06T11:41:08.278Z,29.12
2018-08-06T11:42:12.878Z,28.52
2018-08-06T11:43:18.034Z,28.81
2018-08-06T11:44:24.921Z,28.54
2018-08-06T11:45:31.177Z,28.46
2018-08-06T11:46:36.723Z,28.18
2018-08-06T11:47:42.307Z,27.70
2018-08-06T11:48:47.574Z,26.94
2018-08-06T11:49:53.637Z,26.56
2018-08-06T11:51:00.372Z,26.55
2018-08-06T11:52:06.347Z,26.10
2018-08-06T11:53:11.756Z,25.78
2018-08-06T11:54:16.373Z,25.09
2018-08-06T11:55:22.020Z,24.33
2018-08-06T11:56:28.392Z,24.52
2018-08-06T11:57:34.696Z,24.71
2018-08-06T11:58:40.866Z,25.40
2018-08-06T11:59:46.368Z,25.32
2018-08-06T12:00:51.840Z,25.73
2018-08-06T12:01:59.081Z,25.45
2018-08-06T12:03:09.347Z,25.74
2018-08-06T12:04:15.286Z,25.65
2018-08-06T12:05:21.863Z,25.18
2018-08-06T12:06:27.322Z,24.42
2018-08-06T12:07:32.420Z,24.99
2018-08-06T12:08:38.344Z,25.00
2018-08-06T12:09:44.439Z,25.05
2018-08-06T12:10:50.000Z,25.63
2018-08-06T12:11:55.528Z,25.70
2018-08-06T12:13:00.286Z,25.78
2018-08-06T12:14:06.795Z,25.59
2018-08-06T12:15:12.540Z,25.88
2018-08-06T12:16:19.249Z,25.71
2018-08-06T12:17:25.361Z,25.42
2018-08-06T12:18:31.424Z,26.17
2018-08-06T12:19:37.407Z,25.77
2018-08-06T12:20:43.217Z,25.59
2018-08-06T12:21:49.318Z,24.32
2018-08-06T12:22:56.518Z,24.23
2018-08-06T12:24:02.879Z,23.91
2018-08-06T12:25:10.458Z,24.05
2018-08-06T12:26:16.242Z,24.13
2018-08-06T12:27:21.475Z,24.07
2018-08-06T12:28:27.215Z,24.19
2018-08-06T12:29:35.853Z,24.36
2018-08-06T12:30:40.891Z,24.18
2018-08-06T12:31:47.049Z,23.79
2018-08-06T12:32:52.611Z,23.61
2018-08-06T12:33:58.286Z,23.95
2018-08-06T12:35:03.566Z,24.02
2018-08-06T12:36:09.285Z,24.39
2018-08-06T12:37:14.050Z,24.30
2018-08-06T12:39:30.247Z,24.38
2018-08-06T12:40:35.801Z,24.53
2018-08-06T12:41:40.728Z,23.83
2018-08-06T12:42:46.583Z,23.52
2018-08-06T12:43:51.392Z,23.44
2018-08-06T12:44:57.826Z,23.08
2018-08-06T12:46:02.746Z,22.85
2018-08-06T12:47:07.409Z,22.25
2018-08-06T12:48:12.809Z,21.90
2018-08-06T12:49:19.047Z,21.71
2018-08-06T12:50:25.120Z,21.95
2018-08-06T12:51:32.591Z,22.09
2018-08-06T12:52:38.814Z,21.36
2018-08-06T12:53:44.533Z,21.62
2018-08-06T12:54:50.055Z,21.47
2018-08-06T12:55:54.633Z,21.67
2018-08-06T12:56:59.281Z,21.50
2018-08-06T12:58:04.797Z,21.37
2018-08-06T12:59:11.343Z,20.58
2018-08-06T13:00:23.094Z,21.36
2018-08-06T13:01:27.866Z,21.61
2018-08-06T13:02:32.506Z,21.08
2018-08-06T13:03:37.239Z,20.67
2018-08-06T13:04:42.007Z,20.05
2018-08-06T13:05:47.692Z,19.85
2018-08-06T13:06:53.203Z,19.47
2018-08-06T13:07:57.784Z,20.60
2018-08-06T13:09:05.043Z,20.74
2018-08-06T13:10:11.506Z,21.18
2018-08-06T13:11:16.498Z,21.47
2018-08-06T13:12:23.065Z,21.50
2018-08-06T13:13:28.146Z,21.92
2018-08-06T13:14:34.196Z,22.10
2018-08-06T13:15:38.988Z,22.06
2018-08-06T13:16:45.515Z,21.60
2018-08-06T13:17:51.353Z,21.58
2018-08-06T13:18:56.809Z,21.55
2018-08-06T13:20:02.665Z,21.54
2018-08-06T13:21:07.620Z,21.62
2018-08-06T13:22:17.640Z,21.56
2018-08-06T13:23:25.328Z,21.72
2018-08-06T13:24:29.997Z,21.74
2018-08-06T13:25:37.993Z,22.12
2018-08-06T13:26:44.563Z,21.79
2018-08-06T13:27:50.822Z,21.62
2018-08-06T13:28:56.292Z,21.72
2018-08-06T13:30:02.836Z,21.28
2018-08-06T13:31:07.719Z,20.58
2018-08-06T13:32:12.479Z,20.56
2018-08-06T13:33:19.762Z,19.90
2018-08-06T13:34:26.660Z,20.44
2018-08-06T13:35:31.254Z,20.45
2018-08-06T13:36:38.437Z,20.65
2018-08-06T13:37:43.138Z,20.54
2018-08-06T13:38:47.746Z,20.72
2018-08-06T13:39:57.116Z,20.46
2018-08-06T13:41:03.695Z,20.48
2018-08-06T13:42:12.144Z,20.69
2018-08-06T13:43:17.190Z,20.46
2018-08-06T13:44:22.846Z,20.54
2018-08-06T13:46:38.541Z,20.54
2018-08-06T13:47:43.404Z,20.33
2018-08-06T13:48:48.381Z,20.16
2018-08-06T13:49:53.629Z,20.17
2018-08-06T13:51:00.422Z,21.05
2018-08-06T13:52:05.087Z,20.77
2018-08-06T13:53:10.472Z,20.65
2018-08-06T13:54:15.173Z,19.97
2018-08-06T13:55:20.177Z,19.71
2018-08-06T13:56:24.908Z,19.34
2018-08-06T13:57:29.634Z,20.12
2018-08-06T13:58:34.230Z,20.28
2018-08-06T13:59:41.970Z,19.95
2018-08-06T14:00:46.661Z,19.47
2018-08-06T14:01:51.233Z,19.75
2018-08-06T14:02:56.204Z,20.04
2018-08-06T14:04:02.268Z,19.84
2018-08-06T14:05:07.796Z,20.56
2018-08-06T14:06:12.476Z,20.58
2018-08-06T14:07:18.252Z,20.33
2018-08-06T14:08:23.167Z,20.78
2018-08-06T14:09:27.817Z,20.27
2018-08-06T14:10:32.909Z,20.01
2018-08-06T14:11:37.591Z,20.40
2018-08-06T14:12:42.829Z,19.66
2018-08-06T14:13:48.215Z,20.18
2018-08-06T14:14:54.368Z,19.51
2018-08-06T14:15:59.172Z,18.92
2018-08-06T14:17:04.107Z,18.80
2018-08-06T14:18:12.346Z,18.97
2018-08-06T14:19:19.593Z,19.20
2018-08-06T14:20:28.106Z,19.04
2018-08-06T14:21:35.611Z,19.22
2018-08-06T14:22:41.532Z,19.21
2018-08-06T14:23:47.764Z,19.35
2018-08-06T14:24:54.568Z,19.44
2018-08-06T14:26:01.622Z,19.59
2018-08-06T14:27:08.369Z,19.27
2018-08-06T14:28:14.210Z,18.72
2018-08-06T14:29:19.281Z,18.69
2018-08-06T14:30:24.013Z,18.17
2018-08-06T14:31:28.961Z,18.83
2018-08-06T14:51:27.604Z,19.12
2018-08-06T14:52:33.839Z,19.19
2018-08-06T14:53:40.877Z,18.78
2018-08-06T14:54:46.402Z,18.18